首页
METAR-TAF:

METAR-TAF

机场 :

Matagami, 魁北克, 加拿大

纬度: 49-46N, 经度: 077-49W, 海拔: 281米

当前天气观测

该预报发布于11分钟前的19:28 UTC
风速6节,风向西,有时为19节阵风,在西转西南西转西北之间变化
温度 -22°C
湿度 64%
气压 1023 hPa
能見度: 9.7公里
阴天层高于2600英尺

METAR: CYNM 191928Z AUTO 27006G19KT 240V300 6SM HZ OVC026 M22/M27 A3022 RMK SLP269

时间: 14:39 (19:39 UTC)


TAF: 丢失

超过4000个机场的气象观测和天气预报(METAR&TAF报告)。

可查询的气象台以黄色和红色小点在地图上表示。

将鼠标移到小点上方,可查看气象台名称。

然后点击查看天气观测和预报。

如需切换地图:点击带黑十字的绿色按钮放大地图;点击带横线的绿色按钮缩小地图;或者点击绿色箭头查看邻近地区的地图。


METAR-TAF: